createdAt,value
2023-02-17T00:00:13.628Z,15.52
2023-02-17T00:00:45.738Z,18.02
2023-02-17T00:01:21.002Z,14.30
2023-02-17T00:01:55.757Z,15.15
2023-02-17T00:02:28.084Z,15.13
2023-02-17T00:03:00.445Z,14.57
2023-02-17T00:03:35.144Z,13.82
2023-02-17T00:04:07.293Z,13.45
2023-02-17T00:04:42.006Z,14.93
2023-02-17T00:05:14.244Z,16.33
2023-02-17T00:05:46.336Z,13.70
2023-02-17T00:06:23.761Z,14.80
2023-02-17T00:06:56.584Z,14.55
2023-02-17T00:07:31.646Z,15.90
2023-02-17T00:08:06.401Z,14.05
2023-02-17T00:08:38.698Z,15.07
2023-02-17T00:09:13.443Z,13.38
2023-02-17T00:09:45.514Z,14.02
2023-02-17T00:10:20.581Z,13.80
2023-02-17T00:10:59.736Z,14.50
2023-02-17T00:11:31.977Z,13.65
2023-02-17T00:12:07.285Z,16.30
2023-02-17T00:12:39.403Z,14.52
2023-02-17T00:13:11.577Z,14.15
2023-02-17T00:13:46.347Z,13.73
2023-02-17T00:14:18.959Z,15.20
2023-02-17T00:14:53.639Z,15.00
2023-02-17T00:15:25.769Z,15.07
2023-02-17T00:15:58.107Z,13.55
2023-02-17T00:16:32.900Z,13.90
2023-02-17T00:17:04.960Z,15.23
2023-02-17T00:17:37.080Z,14.05
2023-02-17T00:18:09.154Z,15.95
2023-02-17T00:18:43.818Z,14.55
2023-02-17T00:19:25.587Z,13.23
2023-02-17T00:19:57.695Z,13.93
2023-02-17T00:20:32.448Z,13.65
2023-02-17T00:21:15.830Z,14.55
2023-02-17T00:21:48.056Z,14.57
2023-02-17T00:22:22.756Z,13.35
2023-02-17T00:22:54.925Z,13.20
2023-02-17T00:23:27.049Z,13.77
2023-02-17T00:24:02.635Z,13.68
2023-02-17T00:24:37.903Z,14.77
2023-02-17T00:25:10.025Z,13.80
2023-02-17T00:25:47.380Z,14.52
2023-02-17T00:26:20.324Z,13.65
2023-02-17T00:26:52.487Z,14.90
2023-02-17T00:27:27.313Z,16.05
2023-02-17T00:27:59.396Z,15.13
2023-02-17T00:28:31.567Z,14.75
2023-02-17T00:29:06.450Z,14.60
2023-02-17T00:29:38.878Z,14.15
2023-02-17T00:30:11.669Z,13.13
2023-02-17T00:30:46.351Z,15.50
2023-02-17T00:31:20.758Z,14.35
2023-02-17T00:31:56.431Z,15.82
2023-02-17T00:32:28.881Z,15.45
2023-02-17T00:33:01.892Z,14.07
2023-02-17T00:33:36.659Z,15.20
2023-02-17T00:34:10.513Z,15.43
2023-02-17T00:34:42.598Z,15.30
2023-02-17T00:35:17.546Z,13.93
2023-02-17T00:35:49.784Z,17.20
2023-02-17T00:36:22.163Z,14.73
2023-02-17T00:36:57.065Z,16.30
2023-02-17T00:37:29.156Z,14.93
2023-02-17T00:38:01.255Z,15.13
2023-02-17T00:38:36.324Z,15.07
2023-02-17T00:39:08.799Z,13.98
2023-02-17T00:39:41.074Z,15.10
2023-02-17T00:40:16.545Z,13.80
2023-02-17T00:40:51.212Z,15.25
2023-02-17T00:41:24.919Z,14.52
2023-02-17T00:41:59.597Z,14.45
2023-02-17T00:42:34.611Z,15.57
2023-02-17T00:43:06.804Z,15.02
2023-02-17T00:43:41.550Z,14.13
2023-02-17T00:44:17.725Z,13.35
2023-02-17T00:44:49.825Z,14.77
2023-02-17T00:45:24.611Z,16.35
2023-02-17T00:45:57.063Z,14.60
2023-02-17T00:46:31.785Z,15.13
2023-02-17T00:47:03.955Z,15.20
2023-02-17T00:47:36.034Z,14.90
2023-02-17T00:48:10.913Z,16.05
2023-02-17T00:48:44.141Z,15.13
2023-02-17T00:49:19.856Z,13.43
2023-02-17T00:49:54.719Z,14.70
2023-02-17T00:50:26.845Z,15.48
2023-02-17T00:50:58.987Z,14.57
2023-02-17T00:51:34.669Z,14.07
2023-02-17T00:52:09.064Z,14.77
2023-02-17T00:52:41.637Z,14.93
2023-02-17T00:53:16.412Z,15.23
2023-02-17T00:53:48.795Z,15.05
2023-02-17T00:54:21.286Z,15.18
2023-02-17T00:54:55.991Z,15.60
2023-02-17T00:55:28.205Z,15.20
2023-02-17T00:56:03.818Z,14.70
2023-02-17T00:56:38.661Z,15.25
2023-02-17T00:57:11.531Z,15.15
2023-02-17T00:57:43.622Z,14.43
2023-02-17T00:58:18.868Z,14.07
2023-02-17T00:58:51.053Z,15.10
2023-02-17T00:59:23.204Z,15.05
2023-02-17T00:59:55.337Z,15.98
2023-02-17T01:00:30.038Z,14.82
2023-02-17T01:01:02.335Z,15.57
2023-02-17T01:01:34.629Z,17.00
2023-02-17T01:02:09.380Z,15.13
2023-02-17T01:02:41.748Z,17.33
2023-02-17T01:03:13.901Z,15.27
2023-02-17T01:03:48.638Z,15.73
2023-02-17T01:04:20.740Z,18.15
2023-02-17T01:04:53.977Z,18.02
2023-02-17T01:05:28.796Z,17.52
2023-02-17T01:06:07.062Z,16.77
2023-02-17T01:06:40.838Z,16.85
2023-02-17T01:07:15.500Z,16.73
2023-02-17T01:07:47.604Z,15.93
2023-02-17T01:08:19.768Z,16.30
2023-02-17T01:08:54.889Z,16.38
2023-02-17T01:09:27.092Z,16.35
2023-02-17T01:09:59.208Z,15.40
2023-02-17T01:10:33.972Z,15.90
2023-02-17T01:11:16.582Z,15.23
2023-02-17T01:11:48.677Z,17.25
2023-02-17T01:12:23.478Z,16.90
2023-02-17T01:12:57.064Z,14.75
2023-02-17T01:13:29.175Z,16.13
2023-02-17T01:14:06.368Z,15.35
2023-02-17T01:14:38.603Z,15.80
2023-02-17T01:15:11.309Z,14.40
2023-02-17T01:15:49.241Z,14.63
2023-02-17T01:16:24.191Z,15.77
2023-02-17T01:16:56.299Z,16.00
2023-02-17T01:17:31.073Z,15.43
2023-02-17T01:18:03.447Z,15.05
2023-02-17T01:18:35.551Z,15.10
2023-02-17T01:19:13.969Z,14.50
2023-02-17T01:19:46.025Z,15.50
2023-02-17T01:20:18.656Z,15.35
2023-02-17T01:20:53.946Z,14.23
2023-02-17T01:21:28.776Z,15.77
2023-02-17T01:22:01.052Z,15.88
2023-02-17T01:22:36.973Z,15.13
2023-02-17T01:23:10.461Z,16.88
2023-02-17T01:23:42.625Z,15.45
2023-02-17T01:24:17.334Z,14.95
2023-02-17T01:24:49.464Z,15.85
2023-02-17T01:25:21.552Z,16.10
2023-02-17T01:25:54.053Z,17.45
2023-02-17T01:26:35.746Z,16.42
2023-02-17T01:27:07.832Z,17.20
2023-02-17T01:27:40.009Z,16.80
2023-02-17T01:28:19.388Z,15.48
2023-02-17T01:28:53.044Z,16.33
2023-02-17T01:29:27.799Z,16.23
2023-02-17T01:29:59.916Z,15.23
2023-02-17T01:30:32.501Z,16.42
2023-02-17T01:31:08.789Z,16.35
2023-02-17T01:31:41.176Z,16.33
2023-02-17T01:32:16.932Z,14.77
2023-02-17T01:32:51.689Z,15.07
2023-02-17T01:33:23.812Z,15.35
2023-02-17T01:33:57.897Z,16.58
2023-02-17T01:34:32.578Z,16.35
2023-02-17T01:35:05.112Z,15.82
2023-02-17T01:35:40.443Z,15.07
2023-02-17T01:36:17.673Z,15.70
2023-02-17T01:36:49.797Z,17.05
2023-02-17T01:37:22.006Z,15.43
2023-02-17T01:37:54.247Z,16.27
2023-02-17T01:38:31.497Z,15.55
2023-02-17T01:39:03.724Z,17.10
2023-02-17T01:39:36.073Z,16.33
2023-02-17T01:40:11.905Z,17.33
2023-02-17T01:40:47.539Z,16.20
2023-02-17T01:41:22.026Z,17.60
2023-02-17T01:41:59.576Z,16.73
2023-02-17T01:42:31.660Z,16.30
2023-02-17T01:43:04.101Z,17.40
2023-02-17T01:43:39.189Z,15.25
2023-02-17T01:44:15.435Z,16.20
2023-02-17T01:45:17.421Z,16.15
2023-02-17T01:45:57.924Z,17.75
2023-02-17T01:46:32.885Z,15.63
2023-02-17T01:47:07.646Z,18.15
2023-02-17T01:47:40.186Z,16.95
2023-02-17T01:48:16.346Z,16.05
2023-02-17T01:48:53.856Z,16.67
2023-02-17T01:49:33.028Z,15.32
2023-02-17T01:50:06.692Z,15.70
2023-02-17T01:50:46.350Z,16.23
2023-02-17T01:51:22.627Z,16.13
2023-02-17T01:52:01.276Z,15.88
2023-02-17T01:52:36.103Z,15.73
2023-02-17T01:53:11.505Z,14.25
2023-02-17T01:53:48.876Z,16.02
2023-02-17T01:54:27.423Z,16.33
2023-02-17T01:55:03.675Z,19.88
2023-02-17T01:55:38.321Z,15.40
2023-02-17T01:56:14.898Z,15.23
2023-02-17T01:56:50.448Z,15.63
2023-02-17T01:57:30.524Z,17.90
2023-02-17T01:58:04.757Z,16.95
2023-02-17T01:58:44.194Z,15.98
2023-02-17T01:59:19.135Z,15.25
2023-02-17T01:59:56.892Z,16.95
2023-02-17T02:00:32.299Z,17.02
2023-02-17T02:01:06.486Z,18.67
2023-02-17T02:01:42.984Z,17.35
2023-02-17T02:02:16.125Z,18.38
2023-02-17T02:02:50.442Z,16.23
2023-02-17T02:03:29.306Z,16.38
2023-02-17T02:04:04.983Z,17.38
2023-02-17T02:04:43.677Z,16.30
2023-02-17T02:05:18.229Z,15.98
2023-02-17T02:05:50.976Z,17.08
2023-02-17T02:06:28.932Z,16.27
2023-02-17T02:07:01.245Z,18.75
2023-02-17T02:07:36.699Z,20.80
2023-02-17T02:08:13.080Z,23.30
2023-02-17T02:08:53.208Z,19.55
2023-02-17T02:09:31.716Z,19.85
2023-02-17T02:10:06.721Z,27.92
2023-02-17T02:10:40.656Z,36.22
2023-02-17T02:11:15.393Z,42.70
2023-02-17T02:11:49.358Z,40.28
2023-02-17T02:12:26.030Z,50.60
2023-02-17T02:13:01.101Z,59.33
2023-02-17T02:13:33.549Z,49.88
2023-02-17T02:14:09.216Z,44.25
2023-02-17T02:14:44.337Z,44.13
2023-02-17T02:15:20.733Z,34.40
2023-02-17T02:16:01.643Z,34.83
2023-02-17T02:16:45.467Z,30.67
2023-02-17T02:17:27.712Z,26.60
2023-02-17T02:18:15.546Z,28.98
2023-02-17T02:18:59.291Z,28.77
2023-02-17T02:19:57.344Z,29.23
2023-02-17T02:20:59.706Z,27.33
2023-02-17T02:22:11.454Z,25.90
2023-02-17T02:23:08.643Z,24.52
2023-02-17T02:24:13.828Z,26.52
2023-02-17T02:25:02.501Z,25.92
2023-02-17T02:26:01.400Z,21.60
2023-02-17T02:26:59.216Z,21.00
2023-02-17T02:27:49.577Z,18.38
2023-02-17T02:28:37.155Z,17.40
2023-02-17T02:29:49.284Z,17.35
2023-02-17T02:30:40.996Z,16.52
2023-02-17T02:31:31.569Z,16.38
2023-02-17T02:33:06.228Z,18.00
2023-02-17T02:33:43.757Z,17.25
2023-02-17T02:34:20.951Z,17.05
2023-02-17T02:35:00.546Z,16.58
2023-02-17T02:35:41.982Z,17.17
2023-02-17T02:36:22.878Z,16.05
2023-02-17T02:37:00.449Z,16.92
2023-02-17T02:37:37.097Z,17.75
2023-02-17T02:38:17.406Z,21.45
2023-02-17T02:39:32.906Z,17.95
2023-02-17T02:40:11.927Z,18.88
2023-02-17T02:40:47.491Z,18.77
2023-02-17T02:41:26.750Z,18.30
2023-02-17T02:42:03.254Z,20.00
2023-02-17T02:42:35.760Z,20.88
2023-02-17T02:43:08.364Z,18.73
2023-02-17T02:43:44.463Z,20.95
2023-02-17T02:44:19.966Z,18.95
2023-02-17T02:44:52.066Z,18.48
2023-02-17T02:45:26.034Z,19.58
2023-02-17T02:46:01.092Z,17.88
2023-02-17T02:46:33.209Z,19.63
2023-02-17T02:47:27.456Z,20.13
2023-02-17T02:48:05.030Z,19.33
2023-02-17T02:48:38.115Z,18.60
2023-02-17T02:49:10.534Z,17.17
2023-02-17T02:49:45.424Z,17.60
2023-02-17T02:50:21.636Z,18.80
2023-02-17T02:51:05.962Z,20.13
2023-02-17T02:51:49.821Z,19.45
2023-02-17T02:52:32.145Z,21.08
2023-02-17T02:53:33.812Z,19.63
2023-02-17T02:54:32.681Z,21.30
2023-02-17T02:55:12.392Z,18.88
2023-02-17T02:55:55.715Z,19.50
2023-02-17T02:56:42.684Z,19.83
2023-02-17T02:57:25.000Z,20.42
2023-02-17T02:58:06.171Z,20.98
2023-02-17T02:58:47.891Z,22.35
2023-02-17T02:59:37.308Z,20.65
2023-02-17T03:00:20.859Z,19.83
2023-02-17T03:01:01.948Z,20.40
2023-02-17T03:01:44.141Z,19.00
2023-02-17T03:02:27.397Z,18.40
2023-02-17T03:03:09.561Z,20.02
2023-02-17T03:03:47.407Z,18.90
2023-02-17T03:04:31.915Z,19.70
2023-02-17T03:05:12.283Z,16.77
2023-02-17T03:05:54.471Z,16.23
2023-02-17T03:06:33.365Z,18.08
2023-02-17T03:07:11.551Z,18.60
2023-02-17T03:07:53.773Z,18.30
2023-02-17T03:08:33.586Z,18.42
2023-02-17T03:09:09.315Z,16.63
2023-02-17T03:09:44.441Z,17.90
2023-02-17T03:10:18.703Z,17.17
2023-02-17T03:10:53.352Z,16.60
2023-02-17T03:11:34.987Z,15.82
2023-02-17T03:12:08.768Z,16.13
2023-02-17T03:12:43.780Z,16.08
2023-02-17T03:13:18.155Z,16.33
2023-02-17T03:13:50.325Z,16.13
2023-02-17T03:14:23.312Z,15.93
2023-02-17T03:15:03.020Z,16.63
2023-02-17T03:15:35.816Z,16.67
2023-02-17T03:16:09.039Z,16.83
2023-02-17T03:16:43.081Z,18.67
2023-02-17T03:17:17.843Z,15.90
2023-02-17T03:17:56.996Z,18.10
2023-02-17T03:18:32.362Z,15.77
2023-02-17T03:19:07.985Z,16.40
2023-02-17T03:19:40.184Z,18.30
2023-02-17T03:20:14.118Z,17.65
2023-02-17T03:20:54.111Z,22.23
2023-02-17T03:21:31.573Z,17.52
2023-02-17T03:22:09.928Z,19.25
2023-02-17T03:22:47.875Z,20.73
2023-02-17T03:23:20.968Z,17.70
2023-02-17T03:23:53.617Z,17.20
2023-02-17T03:24:28.839Z,15.15
2023-02-17T03:25:01.404Z,17.95
2023-02-17T03:25:33.614Z,16.88
2023-02-17T03:26:08.706Z,16.88
2023-02-17T03:26:40.923Z,17.80
2023-02-17T03:27:13.284Z,17.45
2023-02-17T03:27:48.008Z,17.13
2023-02-17T03:28:20.450Z,16.75
2023-02-17T03:28:53.070Z,18.45
2023-02-17T03:29:27.759Z,18.55
2023-02-17T03:29:59.874Z,15.18
2023-02-17T03:30:32.160Z,17.05
2023-02-17T03:31:07.321Z,18.10
2023-02-17T03:31:40.703Z,19.13
2023-02-17T03:32:13.032Z,18.90
2023-02-17T03:32:47.919Z,15.98
2023-02-17T03:33:20.033Z,17.67
2023-02-17T03:33:54.832Z,17.73
2023-02-17T03:34:29.712Z,17.48
2023-02-17T03:35:02.848Z,17.02
2023-02-17T03:35:34.939Z,17.15
2023-02-17T03:36:10.500Z,16.88
2023-02-17T03:36:42.590Z,16.52
2023-02-17T03:37:14.856Z,20.70
2023-02-17T03:37:49.550Z,18.98
2023-02-17T03:38:21.636Z,18.35
2023-02-17T03:38:53.790Z,18.60
2023-02-17T03:39:25.867Z,17.70
2023-02-17T03:40:00.667Z,17.95
2023-02-17T03:40:32.809Z,20.77
2023-02-17T03:41:05.116Z,17.38
2023-02-17T03:41:37.235Z,17.20
2023-02-17T03:42:11.876Z,18.67
2023-02-17T03:42:44.044Z,17.83
2023-02-17T03:43:17.957Z,18.17
2023-02-17T03:43:50.453Z,20.58
2023-02-17T03:44:25.170Z,18.73
2023-02-17T03:44:57.252Z,16.80
2023-02-17T03:45:29.514Z,18.65
2023-02-17T03:46:01.782Z,19.42
2023-02-17T03:46:36.517Z,18.73
2023-02-17T03:47:08.773Z,20.23
2023-02-17T03:47:41.259Z,18.63
2023-02-17T03:48:13.442Z,18.95
2023-02-17T03:48:48.198Z,18.33
2023-02-17T03:49:22.987Z,17.67
2023-02-17T03:49:55.238Z,19.27
2023-02-17T03:50:29.917Z,18.30
2023-02-17T03:51:10.972Z,17.25
2023-02-17T03:51:45.618Z,18.38
2023-02-17T03:52:18.436Z,17.83
2023-02-17T03:52:50.524Z,17.02
2023-02-17T03:53:25.174Z,18.40
2023-02-17T03:53:57.427Z,17.63
2023-02-17T03:54:29.643Z,17.58
2023-02-17T03:55:04.314Z,16.85
2023-02-17T03:55:36.381Z,18.05
2023-02-17T03:56:08.766Z,18.98
2023-02-17T03:56:40.962Z,19.88
2023-02-17T03:57:15.640Z,20.88
2023-02-17T03:57:47.745Z,19.60
2023-02-17T03:58:19.796Z,19.27
2023-02-17T03:58:54.472Z,18.73
2023-02-17T03:59:27.244Z,19.25
2023-02-17T03:59:59.357Z,18.23
2023-02-17T04:00:34.090Z,19.17
2023-02-17T04:01:06.801Z,18.67
2023-02-17T04:01:39.012Z,21.63
2023-02-17T04:02:13.775Z,19.30
2023-02-17T04:02:45.895Z,19.80
2023-02-17T04:03:18.349Z,18.27
2023-02-17T04:03:53.299Z,17.70
2023-02-17T04:04:28.090Z,17.02
2023-02-17T04:05:00.369Z,17.27
2023-02-17T04:05:35.025Z,18.23
2023-02-17T04:06:08.488Z,18.52
2023-02-17T04:06:43.429Z,18.90
2023-02-17T04:07:15.574Z,18.63
2023-02-17T04:07:48.129Z,19.80
2023-02-17T04:08:22.999Z,20.73
2023-02-17T04:08:55.109Z,24.80
2023-02-17T04:09:27.263Z,21.83
2023-02-17T04:10:04.919Z,20.05
2023-02-17T04:10:37.699Z,21.88
2023-02-17T04:11:10.445Z,21.35
2023-02-17T04:11:45.676Z,23.25
2023-02-17T04:12:17.774Z,22.98
2023-02-17T04:12:49.853Z,18.80
2023-02-17T04:13:24.694Z,17.83
2023-02-17T04:13:56.842Z,19.88
2023-02-17T04:14:28.897Z,19.25
2023-02-17T04:15:03.534Z,17.50
2023-02-17T04:15:35.810Z,16.95
2023-02-17T04:16:09.940Z,19.77
2023-02-17T04:16:45.344Z,19.67
2023-02-17T04:17:17.481Z,17.25
2023-02-17T04:17:49.545Z,18.30
2023-02-17T04:18:25.625Z,17.02
2023-02-17T04:18:57.755Z,18.42
2023-02-17T04:19:34.994Z,17.33
2023-02-17T04:20:08.271Z,16.20
2023-02-17T04:20:40.536Z,17.35
2023-02-17T04:21:15.303Z,16.63
2023-02-17T04:21:47.452Z,19.20
2023-02-17T04:22:19.540Z,17.13
2023-02-17T04:22:54.238Z,19.08
2023-02-17T04:23:26.446Z,19.20
2023-02-17T04:24:00.782Z,18.42
2023-02-17T04:24:35.504Z,17.23
2023-02-17T04:25:07.822Z,17.67
2023-02-17T04:25:40.069Z,17.45
2023-02-17T04:26:16.106Z,17.70
2023-02-17T04:26:48.188Z,20.13
2023-02-17T04:27:20.318Z,15.85
2023-02-17T04:27:55.003Z,17.05
2023-02-17T04:28:27.224Z,18.00
2023-02-17T04:28:59.326Z,17.30
2023-02-17T04:29:34.065Z,22.15
2023-02-17T04:30:07.838Z,19.75
2023-02-17T04:30:40.603Z,21.58
2023-02-17T04:31:15.552Z,19.70
2023-02-17T04:31:47.798Z,20.63
2023-02-17T04:32:20.000Z,19.70
2023-02-17T04:32:54.784Z,20.45
2023-02-17T04:33:27.424Z,18.83
2023-02-17T04:33:59.532Z,21.23
2023-02-17T04:34:36.779Z,19.20
2023-02-17T04:35:08.864Z,19.17
2023-02-17T04:35:41.204Z,19.25
2023-02-17T04:36:16.048Z,18.02
2023-02-17T04:36:50.767Z,20.17
2023-02-17T04:37:22.865Z,20.33
2023-02-17T04:37:55.508Z,19.55
2023-02-17T04:38:31.420Z,18.27
2023-02-17T04:39:03.655Z,20.15
2023-02-17T04:39:35.746Z,22.15
2023-02-17T04:40:12.090Z,22.20
2023-02-17T04:40:44.206Z,23.73
2023-02-17T04:41:16.475Z,22.55
2023-02-17T04:41:51.154Z,22.42
2023-02-17T04:42:23.324Z,23.90
2023-02-17T04:42:55.406Z,22.83
2023-02-17T04:43:31.009Z,25.45
2023-02-17T04:44:03.251Z,25.52
2023-02-17T04:44:35.311Z,23.17
2023-02-17T04:45:11.268Z,24.70
2023-02-17T04:45:43.401Z,25.30
2023-02-17T04:46:15.519Z,25.30
2023-02-17T04:46:50.424Z,29.27
2023-02-17T04:47:23.029Z,23.05
2023-02-17T04:47:55.112Z,24.00
2023-02-17T04:48:29.786Z,25.50
2023-02-17T04:49:01.882Z,24.33
2023-02-17T04:49:36.710Z,25.23
2023-02-17T04:50:13.876Z,24.55
2023-02-17T04:50:46.115Z,25.40
2023-02-17T04:51:18.242Z,23.35
2023-02-17T04:51:52.921Z,22.42
2023-02-17T04:52:25.194Z,21.67
2023-02-17T04:52:57.264Z,25.73
2023-02-17T04:53:31.941Z,23.52
2023-02-17T04:54:04.222Z,22.65
2023-02-17T04:54:36.718Z,23.95
2023-02-17T04:55:09.253Z,22.52
2023-02-17T04:55:44.355Z,21.77
2023-02-17T04:56:16.478Z,21.50
2023-02-17T04:56:48.631Z,25.77
2023-02-17T04:57:23.334Z,23.77
2023-02-17T04:57:55.776Z,22.33
2023-02-17T04:58:27.998Z,22.50
2023-02-17T04:59:02.705Z,25.13
2023-02-17T04:59:34.793Z,23.60
2023-02-17T05:00:08.796Z,24.70
2023-02-17T05:00:43.521Z,27.98
2023-02-17T05:01:15.622Z,26.08
2023-02-17T05:01:47.795Z,23.77
2023-02-17T05:02:22.534Z,28.92
2023-02-17T05:02:54.636Z,26.83
2023-02-17T05:03:27.181Z,25.15
2023-02-17T05:04:01.844Z,25.90
2023-02-17T05:04:38.893Z,23.00
2023-02-17T05:05:11.013Z,22.85
2023-02-17T05:05:45.758Z,22.95
2023-02-17T05:06:17.973Z,23.00
2023-02-17T05:06:50.059Z,23.35
2023-02-17T05:07:25.295Z,19.65
2023-02-17T05:07:57.389Z,22.17
2023-02-17T05:08:29.483Z,23.58
2023-02-17T05:09:04.214Z,22.27
2023-02-17T05:09:36.427Z,20.27
2023-02-17T05:10:09.551Z,21.42
2023-02-17T05:10:44.236Z,21.88
2023-02-17T05:11:16.412Z,22.45
2023-02-17T05:11:49.004Z,20.20
2023-02-17T05:12:21.111Z,23.08
2023-02-17T05:12:55.773Z,20.70
2023-02-17T05:13:27.865Z,18.83
2023-02-17T05:14:02.548Z,19.20
2023-02-17T05:14:34.678Z,22.00
2023-02-17T05:15:08.321Z,19.73
2023-02-17T05:15:43.095Z,22.33
2023-02-17T05:16:15.230Z,21.15
2023-02-17T05:16:47.445Z,21.52
2023-02-17T05:17:22.169Z,19.52
2023-02-17T05:17:54.311Z,21.58
2023-02-17T05:18:26.399Z,23.42
2023-02-17T05:19:01.061Z,27.00
2023-02-17T05:19:33.353Z,26.45
2023-02-17T05:20:11.284Z,23.52
2023-02-17T05:20:45.944Z,22.30
2023-02-17T05:21:18.084Z,21.52
2023-02-17T05:21:51.461Z,22.02
2023-02-17T05:22:26.200Z,23.42
2023-02-17T05:22:58.346Z,21.52
2023-02-17T05:23:30.564Z,21.80
2023-02-17T05:24:05.247Z,20.10
2023-02-17T05:24:38.882Z,21.92
2023-02-17T05:25:11.120Z,19.45
2023-02-17T05:25:45.997Z,21.05
2023-02-17T05:26:18.073Z,21.48
2023-02-17T05:26:50.346Z,19.98
2023-02-17T05:27:25.166Z,22.00
2023-02-17T05:27:57.562Z,19.55
2023-02-17T05:28:29.744Z,19.30
2023-02-17T05:29:04.428Z,18.75
2023-02-17T05:29:36.709Z,24.33
2023-02-17T05:30:12.138Z,19.55
2023-02-17T05:30:44.493Z,20.65
2023-02-17T05:31:20.463Z,22.10
2023-02-17T05:31:52.705Z,21.20
2023-02-17T05:32:25.191Z,20.52
2023-02-17T05:33:00.939Z,19.75
2023-02-17T05:33:33.072Z,21.02
2023-02-17T05:34:05.340Z,21.85
2023-02-17T05:34:37.702Z,20.92
2023-02-17T05:35:15.120Z,18.52
2023-02-17T05:35:47.312Z,20.30
2023-02-17T05:36:19.429Z,21.70
2023-02-17T05:36:54.192Z,21.48
2023-02-17T05:37:27.211Z,25.73
2023-02-17T05:38:01.896Z,20.98
2023-02-17T05:38:34.157Z,23.45
2023-02-17T05:39:06.231Z,20.27
2023-02-17T05:39:41.176Z,21.83
2023-02-17T05:40:13.325Z,21.35
2023-02-17T05:40:47.977Z,21.52
2023-02-17T05:41:20.326Z,24.05
2023-02-17T05:41:52.483Z,24.52
2023-02-17T05:42:28.947Z,25.98
2023-02-17T05:43:01.104Z,27.52
2023-02-17T05:43:33.877Z,25.42
2023-02-17T05:44:08.547Z,26.48
2023-02-17T05:44:40.681Z,25.05
2023-02-17T05:45:12.850Z,23.35
2023-02-17T05:45:47.489Z,23.45
2023-02-17T05:46:19.590Z,25.20
2023-02-17T05:46:51.792Z,26.33
2023-02-17T05:47:27.769Z,23.63
2023-02-17T05:47:59.953Z,22.85
2023-02-17T05:48:32.488Z,23.30
2023-02-17T05:49:07.214Z,23.83
2023-02-17T05:49:39.307Z,24.05
2023-02-17T05:50:14.183Z,24.45
2023-02-17T05:50:48.993Z,25.15
2023-02-17T05:51:21.166Z,23.92
2023-02-17T05:51:53.314Z,23.20
2023-02-17T05:52:28.118Z,22.55
2023-02-17T05:53:00.241Z,23.67
2023-02-17T05:53:32.603Z,25.25
2023-02-17T05:54:07.711Z,24.30
2023-02-17T05:54:39.779Z,25.67
2023-02-17T05:55:11.866Z,24.17
2023-02-17T05:55:48.773Z,24.15
2023-02-17T05:56:21.056Z,23.27
2023-02-17T05:56:55.730Z,25.30
2023-02-17T05:57:28.219Z,25.00
2023-02-17T05:58:00.333Z,26.05
2023-02-17T05:58:35.044Z,23.63
2023-02-17T05:59:07.198Z,22.02
2023-02-17T05:59:39.456Z,23.38
2023-02-17T06:00:15.649Z,22.02
2023-02-17T06:00:48.009Z,21.50
2023-02-17T06:01:20.537Z,22.75
2023-02-17T06:01:55.293Z,24.50
2023-02-17T06:02:27.372Z,21.05
2023-02-17T06:02:59.496Z,21.08
2023-02-17T06:03:34.166Z,21.33
2023-02-17T06:04:06.338Z,24.08
2023-02-17T06:04:38.811Z,22.30
2023-02-17T06:05:16.169Z,22.80
2023-02-17T06:05:48.282Z,21.95
2023-02-17T06:06:20.561Z,20.48
2023-02-17T06:06:55.412Z,21.95
2023-02-17T06:07:27.637Z,21.35
2023-02-17T06:07:59.807Z,22.63
2023-02-17T06:08:34.524Z,21.65
2023-02-17T06:09:06.632Z,19.92
2023-02-17T06:09:38.813Z,20.30
2023-02-17T06:10:13.831Z,20.75
2023-02-17T06:10:45.894Z,21.60
2023-02-17T06:11:18.163Z,20.98
2023-02-17T06:11:50.256Z,22.17
2023-02-17T06:12:24.905Z,20.55
2023-02-17T06:12:57.065Z,21.10
2023-02-17T06:13:29.195Z,23.98
2023-02-17T06:14:03.902Z,23.02
2023-02-17T06:14:35.964Z,26.73
2023-02-17T06:15:08.586Z,22.92
2023-02-17T06:15:43.735Z,26.25
2023-02-17T06:16:15.898Z,27.58
2023-02-17T06:16:48.058Z,29.58
2023-02-17T06:17:22.722Z,26.05
2023-02-17T06:17:54.817Z,25.08
2023-02-17T06:18:29.586Z,24.85
2023-02-17T06:19:02.688Z,23.15
2023-02-17T06:19:34.829Z,22.35
2023-02-17T06:20:11.873Z,23.30
2023-02-17T06:20:47.066Z,22.88
2023-02-17T06:21:19.247Z,20.88
2023-02-17T06:21:53.942Z,20.10
2023-02-17T06:22:26.092Z,21.77
2023-02-17T06:22:58.159Z,21.63
2023-02-17T06:23:32.872Z,20.27
2023-02-17T06:24:05.756Z,17.60
2023-02-17T06:24:37.855Z,20.35
2023-02-17T06:25:12.846Z,19.40
2023-02-17T06:25:45.001Z,20.15
2023-02-17T06:26:18.634Z,20.50
2023-02-17T06:26:53.620Z,23.75
2023-02-17T06:27:25.933Z,19.85
2023-02-17T06:27:58.065Z,21.30
2023-02-17T06:28:34.801Z,23.67
2023-02-17T06:29:07.521Z,22.05
2023-02-17T06:29:39.956Z,22.63
2023-02-17T06:30:17.655Z,22.35
2023-02-17T06:30:49.838Z,22.90
2023-02-17T06:31:22.278Z,19.85
2023-02-17T06:31:57.283Z,21.85
2023-02-17T06:32:29.502Z,20.40
2023-02-17T06:33:01.601Z,19.98
2023-02-17T06:33:36.274Z,21.35
2023-02-17T06:34:08.434Z,22.10
2023-02-17T06:34:40.511Z,22.15
2023-02-17T06:35:15.344Z,19.50
2023-02-17T06:35:52.442Z,22.80
2023-02-17T06:36:25.064Z,18.38
2023-02-17T06:36:59.771Z,21.75
2023-02-17T06:37:31.859Z,20.85
2023-02-17T06:38:04.166Z,19.40
2023-02-17T06:38:38.953Z,21.55
2023-02-17T06:39:11.070Z,20.13
2023-02-17T06:39:43.198Z,23.35
2023-02-17T06:40:18.799Z,22.38
2023-02-17T06:40:50.986Z,23.20
2023-02-17T06:41:25.693Z,24.40
2023-02-17T06:41:58.004Z,24.55
2023-02-17T06:42:30.081Z,22.50
2023-02-17T06:43:04.779Z,20.85
2023-02-17T06:43:37.097Z,22.38
2023-02-17T06:44:09.165Z,21.75
2023-02-17T06:44:43.862Z,23.30
2023-02-17T06:45:16.421Z,18.55
2023-02-17T06:45:51.140Z,20.98
2023-02-17T06:46:23.264Z,19.27
2023-02-17T06:46:55.449Z,20.75
2023-02-17T06:47:30.504Z,18.50
2023-02-17T06:48:02.596Z,20.17
2023-02-17T06:48:37.344Z,19.17
2023-02-17T06:49:09.501Z,20.95
2023-02-17T06:49:41.575Z,17.92
2023-02-17T06:50:16.430Z,18.23
2023-02-17T06:50:51.957Z,18.80
2023-02-17T06:51:26.630Z,19.50
2023-02-17T06:51:58.791Z,20.77
2023-02-17T06:52:30.993Z,19.00
2023-02-17T06:53:05.694Z,20.75
2023-02-17T06:53:37.884Z,19.80
2023-02-17T06:54:10.072Z,19.25
2023-02-17T06:54:44.826Z,17.23
2023-02-17T06:55:17.112Z,19.13
2023-02-17T06:55:51.755Z,18.33
2023-02-17T06:56:24.023Z,19.42
2023-02-17T06:56:58.922Z,21.77
2023-02-17T06:57:31.159Z,21.48
2023-02-17T06:58:03.380Z,18.77
2023-02-17T06:58:40.006Z,19.05
2023-02-17T06:59:12.198Z,24.30
2023-02-17T06:59:44.570Z,20.05
2023-02-17T07:00:20.055Z,18.80
2023-02-17T07:00:52.136Z,18.27
2023-02-17T07:01:28.991Z,20.08
2023-02-17T07:02:02.471Z,21.73
2023-02-17T07:02:39.873Z,18.77
2023-02-17T07:03:12.130Z,20.48
2023-02-17T07:03:44.269Z,20.40
2023-02-17T07:04:19.009Z,20.52
2023-02-17T07:04:51.317Z,20.80
2023-02-17T07:05:25.950Z,19.60
2023-02-17T07:06:01.059Z,20.23
2023-02-17T07:06:35.820Z,21.13
2023-02-17T07:07:08.402Z,19.77
2023-02-17T07:07:43.162Z,22.02
2023-02-17T07:08:15.357Z,18.55
2023-02-17T07:08:47.573Z,21.00
2023-02-17T07:09:22.306Z,22.98
2023-02-17T07:09:54.452Z,19.95
2023-02-17T07:10:26.525Z,22.45
2023-02-17T07:11:01.197Z,19.52
2023-02-17T07:11:33.366Z,21.15
2023-02-17T07:12:06.302Z,21.65
2023-02-17T07:12:41.043Z,20.65
2023-02-17T07:13:13.141Z,20.92
2023-02-17T07:13:48.774Z,20.42
2023-02-17T07:14:20.912Z,19.50
2023-02-17T07:14:55.593Z,18.60
2023-02-17T07:15:27.793Z,20.95
2023-02-17T07:16:00.161Z,20.70
2023-02-17T07:16:35.083Z,18.92
2023-02-17T07:17:07.413Z,21.92
2023-02-17T07:17:39.598Z,23.00
2023-02-17T07:18:14.643Z,18.58
2023-02-17T07:18:46.791Z,21.92
2023-02-17T07:19:19.332Z,17.17
2023-02-17T07:19:54.066Z,17.50
2023-02-17T07:20:26.149Z,18.20
2023-02-17T07:21:00.929Z,18.35
2023-02-17T07:21:35.664Z,16.88
2023-02-17T07:22:07.744Z,18.48
2023-02-17T07:22:40.013Z,19.67
2023-02-17T07:23:14.765Z,19.38
2023-02-17T07:23:47.181Z,18.50
2023-02-17T07:24:19.341Z,20.15
2023-02-17T07:24:54.031Z,19.63
2023-02-17T07:25:26.252Z,18.67
2023-02-17T07:26:02.240Z,18.75
2023-02-17T07:26:38.867Z,20.00
2023-02-17T07:27:11.115Z,19.55
2023-02-17T07:27:43.239Z,21.25
2023-02-17T07:28:18.005Z,17.67
2023-02-17T07:28:50.069Z,17.33